createdAt,value
2022-09-24T00:29:43.777Z,0
2022-09-24T00:30:24.193Z,0
2022-09-24T00:31:04.679Z,0
2022-09-24T00:31:45.266Z,0
2022-09-24T00:32:25.673Z,0
2022-09-24T00:33:06.152Z,0
2022-09-24T00:33:46.837Z,0
2022-09-24T00:34:27.246Z,0
2022-09-24T00:35:07.926Z,0
2022-09-24T00:41:53.535Z,0
2022-09-24T00:42:34.096Z,0
2022-09-24T00:43:14.554Z,0
2022-09-24T00:43:55.084Z,0
2022-09-24T00:44:35.643Z,0
2022-09-24T00:45:16.203Z,0
2022-09-24T00:45:56.671Z,0
2022-09-24T00:46:37.170Z,0
2022-09-24T00:47:17.705Z,0
2022-09-24T00:47:58.197Z,0
2022-09-24T00:54:03.334Z,0
2022-09-24T00:54:43.795Z,0
2022-09-24T00:55:24.481Z,0
2022-09-24T00:56:45.485Z,0
2022-09-24T00:57:26.043Z,0
2022-09-24T00:58:06.503Z,0
2022-09-24T00:58:47.007Z,0
2022-09-24T00:59:27.516Z,0
2022-09-24T01:00:08.109Z,0
2022-09-24T01:00:48.784Z,0
2022-09-24T01:06:53.336Z,0
2022-09-24T01:07:33.787Z,0
2022-09-24T01:08:14.391Z,0
2022-09-24T01:08:54.851Z,0
2022-09-24T01:09:35.315Z,0
2022-09-24T01:10:15.775Z,0
2022-09-24T01:10:56.386Z,0
2022-09-24T01:11:37.379Z,0
2022-09-24T01:12:17.474Z,0
2022-09-24T01:12:57.946Z,0
2022-09-24T01:13:42.442Z,0
2022-09-24T01:20:23.492Z,0
2022-09-24T01:21:03.911Z,0
2022-09-24T01:21:44.450Z,0
2022-09-24T01:24:43.169Z,0
2022-09-24T01:25:23.567Z,0
2022-09-24T01:26:04.047Z,0
2022-09-24T01:26:44.561Z,0
2022-09-24T01:27:25.828Z,0
2022-09-24T01:28:06.386Z,0
2022-09-24T01:28:46.861Z,0
2022-09-24T01:29:27.425Z,0
2022-09-24T01:36:52.852Z,0
2022-09-24T01:37:33.363Z,0
2022-09-24T01:38:13.852Z,0
2022-09-24T01:38:54.365Z,0
2022-09-24T01:39:35.144Z,0
2022-09-24T01:40:15.810Z,0
2022-09-24T01:40:56.418Z,0
2022-09-24T01:41:36.836Z,0
2022-09-24T01:43:01.587Z,0
2022-09-24T01:46:15.347Z,0
2022-09-24T01:46:56.017Z,0
2022-09-24T01:47:36.786Z,0
2022-09-24T01:48:17.341Z,0
2022-09-24T01:48:57.815Z,0
2022-09-24T01:49:38.315Z,0
2022-09-24T01:50:18.802Z,0
2022-09-24T01:50:59.271Z,0
2022-09-24T01:51:39.730Z,0
2022-09-24T01:52:20.997Z,0
2022-09-24T01:55:02.182Z,0
2022-09-24T01:55:42.710Z,0
2022-09-24T01:56:23.183Z,0
2022-09-24T01:57:03.729Z,0
2022-09-24T01:57:44.269Z,0
2022-09-24T01:58:24.704Z,0
2022-09-24T01:59:05.218Z,0
2022-09-24T02:01:07.679Z,0
2022-09-24T02:01:52.349Z,0
2022-09-24T02:02:32.994Z,0
2022-09-24T02:03:13.422Z,0
2022-09-24T02:03:53.826Z,0
2022-09-24T02:04:34.666Z,0
2022-09-24T02:05:14.938Z,0
2022-09-24T02:05:55.993Z,0
2022-09-24T02:06:36.430Z,0
2022-09-24T02:07:16.954Z,0
2022-09-24T02:08:44.812Z,0
2022-09-24T02:09:27.953Z,0
2022-09-24T02:15:32.901Z,0
2022-09-24T02:16:12.732Z,0
2022-09-24T02:16:53.189Z,0
2022-09-24T02:17:33.675Z,0
2022-09-24T02:18:14.138Z,0
2022-09-24T02:18:54.564Z,0
2022-09-24T02:19:35.095Z,0
2022-09-24T02:20:15.648Z,0
2022-09-24T02:20:56.090Z,0
2022-09-24T02:21:36.585Z,0
2022-09-24T02:22:17.046Z,0
2022-09-24T02:29:42.435Z,0
2022-09-24T02:30:22.880Z,0
2022-09-24T02:31:03.437Z,0
2022-09-24T02:31:44.073Z,0
2022-09-24T02:32:24.358Z,0
2022-09-24T02:33:04.818Z,0
2022-09-24T02:33:45.348Z,0
2022-09-24T02:34:25.804Z,0
2022-09-24T02:35:06.348Z,0
2022-09-24T02:35:46.762Z,0
2022-09-24T02:36:27.272Z,0
2022-09-24T02:44:44.916Z,0
2022-09-24T02:45:25.554Z,0
2022-09-24T02:46:06.176Z,0
2022-09-24T02:46:46.626Z,0
2022-09-24T02:47:27.148Z,0
2022-09-24T02:48:07.509Z,0
2022-09-24T02:48:48.013Z,0
2022-09-24T02:49:28.488Z,0
2022-09-24T02:50:08.969Z,0
2022-09-24T02:50:49.522Z,0
2022-09-24T02:51:30.060Z,0
2022-09-24T02:58:15.017Z,0
2022-09-24T02:58:55.511Z,0
2022-09-24T02:59:35.979Z,0
2022-09-24T03:00:16.441Z,0
2022-09-24T03:00:56.938Z,0
2022-09-24T03:01:37.603Z,0
2022-09-24T03:02:18.001Z,0
2022-09-24T03:02:58.518Z,0
2022-09-24T03:03:39.016Z,0
2022-09-24T03:06:52.830Z,0
2022-09-24T03:07:33.524Z,0
2022-09-24T03:08:13.811Z,0
2022-09-24T03:08:54.258Z,0
2022-09-24T03:09:34.762Z,0
2022-09-24T03:10:15.276Z,0
2022-09-24T03:10:55.750Z,0
2022-09-24T03:11:36.270Z,0
2022-09-24T03:12:16.761Z,0
2022-09-24T03:12:57.273Z,0
2022-09-24T03:13:37.733Z,0
2022-09-24T03:20:22.718Z,0
2022-09-24T03:21:03.197Z,0
2022-09-24T03:21:43.712Z,0
2022-09-24T03:22:24.195Z,0
2022-09-24T03:23:04.639Z,0
2022-09-24T03:23:45.134Z,0
2022-09-24T03:25:06.264Z,0
2022-09-24T03:25:46.808Z,0
2022-09-24T03:26:27.250Z,0
2022-09-24T03:33:52.850Z,0
2022-09-24T03:34:33.328Z,0
2022-09-24T03:35:13.845Z,0
2022-09-24T03:35:54.356Z,0
2022-09-24T03:36:34.822Z,0
2022-09-24T03:37:15.292Z,0
2022-09-24T03:37:55.830Z,0
2022-09-24T03:38:36.278Z,0
2022-09-24T03:39:16.770Z,0
2022-09-24T03:39:57.232Z,0
2022-09-24T03:40:37.796Z,0
2022-09-24T03:47:22.875Z,0
2022-09-24T03:48:03.344Z,0
2022-09-24T03:48:43.816Z,0
2022-09-24T03:49:24.272Z,0
2022-09-24T03:50:04.734Z,0
2022-09-24T03:50:45.316Z,0
2022-09-24T03:51:25.841Z,0
2022-09-24T03:52:06.267Z,0
2022-09-24T03:52:46.799Z,0
2022-09-24T03:53:27.289Z,0
2022-09-24T03:54:07.748Z,0
2022-09-24T04:00:52.659Z,0
2022-09-24T04:01:33.211Z,0
2022-09-24T04:04:46.921Z,0
2022-09-24T04:05:27.535Z,0
2022-09-24T04:06:07.914Z,0
2022-09-24T04:06:48.441Z,0
2022-09-24T04:07:28.932Z,0
2022-09-24T04:08:09.415Z,0
2022-09-24T04:08:49.952Z,0
2022-09-24T04:09:30.412Z,0
2022-09-24T04:10:10.864Z,0
2022-09-24T04:10:51.381Z,0
2022-09-24T04:11:31.826Z,0
2022-09-24T04:18:16.762Z,0
2022-09-24T04:18:57.233Z,0
2022-09-24T04:19:37.737Z,0
2022-09-24T04:20:18.212Z,0
2022-09-24T04:20:58.688Z,0
2022-09-24T04:21:39.197Z,0
2022-09-24T04:23:00.160Z,0
2022-09-24T04:23:40.673Z,0
2022-09-24T04:24:21.172Z,0
2022-09-24T04:25:01.657Z,0
2022-09-24T04:31:46.653Z,0
2022-09-24T04:32:27.056Z,0
2022-09-24T04:33:07.529Z,0
2022-09-24T04:33:48.718Z,0
2022-09-24T04:34:29.274Z,0
2022-09-24T04:35:09.829Z,0
2022-09-24T04:35:50.185Z,0
2022-09-24T04:36:30.673Z,0
2022-09-24T04:37:11.174Z,0
2022-09-24T04:37:51.600Z,0
2022-09-24T04:45:16.873Z,0
2022-09-24T04:45:57.325Z,0
2022-09-24T04:46:38.471Z,0
2022-09-24T04:47:18.936Z,0
2022-09-24T04:47:59.453Z,0
2022-09-24T04:48:39.982Z,0
2022-09-24T04:49:20.459Z,0
2022-09-24T04:50:00.997Z,0
2022-09-24T04:50:45.689Z,0
2022-09-24T04:51:22.043Z,0
2022-09-24T04:58:07.015Z,0
2022-09-24T04:58:47.470Z,0
2022-09-24T04:59:27.988Z,0
2022-09-24T05:00:08.594Z,0
2022-09-24T05:00:49.148Z,0
2022-09-24T05:01:29.638Z,0
2022-09-24T05:04:43.466Z,0
2022-09-24T05:05:23.873Z,0
2022-09-24T05:06:04.318Z,4
2022-09-24T05:06:44.779Z,4
2022-09-24T05:07:25.246Z,4
2022-09-24T05:08:05.731Z,4
2022-09-24T05:08:46.202Z,8
2022-09-24T05:09:26.675Z,4
2022-09-24T05:10:07.179Z,4
2022-09-24T05:10:47.676Z,8
2022-09-24T05:11:28.102Z,8
2022-09-24T05:17:33.401Z,12
2022-09-24T05:18:13.946Z,16
2022-09-24T05:18:54.469Z,16
2022-09-24T05:19:34.973Z,12
2022-09-24T05:20:15.494Z,16
2022-09-24T05:20:55.918Z,20
2022-09-24T05:21:36.419Z,16
2022-09-24T05:22:16.915Z,16
2022-09-24T05:22:57.384Z,20
2022-09-24T05:23:37.880Z,20
2022-09-24T05:24:18.337Z,20
2022-09-24T05:31:03.408Z,32
2022-09-24T05:31:43.832Z,36
2022-09-24T05:32:24.287Z,36
2022-09-24T05:33:04.789Z,40
2022-09-24T05:33:45.275Z,40
2022-09-24T05:34:25.758Z,44
2022-09-24T05:35:06.363Z,48
2022-09-24T05:35:46.836Z,52
2022-09-24T05:36:27.288Z,52
2022-09-24T05:37:07.820Z,56
2022-09-24T05:44:33.298Z,72
2022-09-24T05:45:13.793Z,76
2022-09-24T05:45:54.340Z,76
2022-09-24T05:46:34.798Z,80
2022-09-24T05:47:15.235Z,80
2022-09-24T05:47:55.816Z,80
2022-09-24T05:48:36.297Z,88
2022-09-24T05:49:16.770Z,88
2022-09-24T05:49:57.298Z,88
2022-09-24T05:50:37.781Z,92
2022-09-24T05:51:18.300Z,92
2022-09-24T06:32:34.149Z,176
2022-09-24T06:33:13.680Z,180
2022-09-24T06:33:54.177Z,184
2022-09-24T06:34:34.622Z,192
2022-09-24T06:35:15.104Z,196
2022-09-24T06:35:55.626Z,200
2022-09-24T06:36:36.099Z,204
2022-09-24T06:37:16.599Z,208
2022-09-24T06:37:57.131Z,212
2022-09-24T06:38:37.588Z,220
2022-09-24T06:39:18.091Z,224
2022-09-24T06:46:03.020Z,292
2022-09-24T06:46:43.710Z,304
2022-09-24T06:47:24.038Z,316
2022-09-24T06:48:04.671Z,328
2022-09-24T06:49:27.974Z,356
2022-09-24T06:50:06.005Z,364
2022-09-24T06:50:46.466Z,380
2022-09-24T06:51:26.993Z,392
2022-09-24T06:52:07.518Z,404
2022-09-24T06:52:48.003Z,416
2022-09-24T07:01:47.035Z,440
2022-09-24T07:02:27.595Z,432
2022-09-24T07:03:07.896Z,428
2022-09-24T07:03:48.376Z,420
2022-09-24T07:04:28.860Z,412
2022-09-24T07:05:09.392Z,408
2022-09-24T07:05:49.857Z,404
2022-09-24T07:06:30.320Z,404
2022-09-24T07:07:10.804Z,400
2022-09-24T07:07:51.320Z,396
2022-09-24T07:08:31.799Z,400
2022-09-24T07:15:16.789Z,492
2022-09-24T07:15:57.302Z,504
2022-09-24T07:16:37.754Z,512
2022-09-24T07:17:18.234Z,516
2022-09-24T07:17:58.759Z,524
2022-09-24T07:18:39.277Z,528
2022-09-24T07:19:19.750Z,536
2022-09-24T07:20:00.239Z,540
2022-09-24T07:20:40.788Z,552
2022-09-24T07:21:21.259Z,564
2022-09-24T07:22:01.747Z,576
2022-09-24T07:28:46.881Z,688
2022-09-24T07:29:27.286Z,692
2022-09-24T07:30:07.830Z,696
2022-09-24T07:30:48.423Z,696
2022-09-24T07:31:29.009Z,692
2022-09-24T07:32:09.499Z,672
2022-09-24T07:32:49.997Z,652
2022-09-24T07:33:30.396Z,644
2022-09-24T07:34:10.997Z,636
2022-09-24T07:34:51.378Z,632
2022-09-24T07:35:31.854Z,644
2022-09-24T07:42:16.875Z,624
2022-09-24T07:42:57.366Z,604
2022-09-24T07:43:37.927Z,592
2022-09-24T07:44:18.426Z,576
2022-09-24T07:44:58.945Z,572
2022-09-24T07:45:39.526Z,560
2022-09-24T07:46:20.059Z,556
2022-09-24T07:47:00.587Z,552
2022-09-24T07:47:41.007Z,556
2022-09-24T07:48:21.448Z,564
2022-09-24T07:55:47.174Z,748
2022-09-24T07:56:27.647Z,784
2022-09-24T07:57:08.099Z,828
2022-09-24T07:57:48.588Z,892
2022-09-24T07:58:29.045Z,972
2022-09-24T07:59:09.490Z,1068
2022-09-24T07:59:49.967Z,1188
2022-09-24T08:00:30.486Z,1308
2022-09-24T08:01:11.005Z,1420
2022-09-24T08:01:51.533Z,1540
2022-09-24T08:02:32.005Z,1640
2022-09-24T08:08:36.680Z,1916
2022-09-24T08:09:17.236Z,1900
2022-09-24T08:09:57.884Z,1884
2022-09-24T08:10:38.343Z,1868
2022-09-24T08:11:18.858Z,1852
2022-09-24T08:11:59.622Z,1832
2022-09-24T08:12:39.979Z,1816
2022-09-24T08:13:23.993Z,1796
2022-09-24T08:14:00.889Z,1780
2022-09-24T08:14:41.338Z,1768
2022-09-24T08:15:21.821Z,1752
2022-09-24T08:20:07.334Z,1648
2022-09-24T08:20:47.925Z,1628
2022-09-24T08:21:28.333Z,1608
2022-09-24T08:22:08.810Z,1588
2022-09-24T08:22:49.673Z,1564
2022-09-24T08:23:30.671Z,1540
2022-09-24T08:24:11.242Z,1516
2022-09-24T08:24:51.745Z,1500
2022-09-24T08:31:36.789Z,1608
2022-09-24T08:32:17.250Z,1624
2022-09-24T08:32:57.747Z,1636
2022-09-24T08:34:18.722Z,1668
2022-09-24T08:34:59.176Z,1684
2022-09-24T08:35:39.720Z,1700
2022-09-24T08:36:20.232Z,1720
2022-09-24T08:37:00.743Z,1736
2022-09-24T08:37:41.150Z,1752
2022-09-24T08:38:21.642Z,1768
2022-09-24T08:44:26.876Z,1764
2022-09-24T08:45:07.450Z,1768
2022-09-24T08:45:47.908Z,1780
2022-09-24T08:46:28.440Z,1796
2022-09-24T08:47:08.959Z,1832
2022-09-24T08:47:49.466Z,1880
2022-09-24T08:48:29.995Z,1944
2022-09-24T08:49:10.520Z,2020
2022-09-24T08:49:51.002Z,2096
2022-09-24T08:50:31.552Z,2176
2022-09-24T08:57:57.078Z,2424
2022-09-24T08:58:41.968Z,2436
2022-09-24T08:59:18.105Z,2444
2022-09-24T08:59:58.613Z,2416
2022-09-24T09:00:39.869Z,2384
2022-09-24T09:01:20.892Z,2352
2022-09-24T09:02:01.483Z,2316
2022-09-24T09:09:26.931Z,1888
2022-09-24T09:10:07.602Z,1860
2022-09-24T09:10:48.063Z,1836
2022-09-24T09:11:28.592Z,1832
2022-09-24T09:12:09.056Z,1832
2022-09-24T09:12:49.546Z,1856
2022-09-24T09:13:30.032Z,1880
2022-09-24T09:14:10.516Z,1900
2022-09-24T09:14:50.952Z,1912
2022-09-24T09:15:31.436Z,1936
2022-09-24T09:22:16.625Z,2256
2022-09-24T09:22:57.145Z,2264
2022-09-24T09:23:37.633Z,2252
2022-09-24T09:24:18.152Z,2220
2022-09-24T09:25:03.600Z,2180
2022-09-24T09:25:39.167Z,2144
2022-09-24T09:26:19.726Z,2104
2022-09-24T09:27:00.285Z,2056
2022-09-24T09:27:40.749Z,2008
2022-09-24T09:28:21.205Z,1992
2022-09-24T09:29:01.743Z,1968
2022-09-24T09:35:22.856Z,1704
2022-09-24T09:36:03.402Z,1708
2022-09-24T09:36:43.953Z,1736
2022-09-24T09:37:26.039Z,1736
2022-09-24T09:38:04.970Z,1724
2022-09-24T09:38:45.487Z,1720
2022-09-24T09:39:26.024Z,1712
2022-09-24T09:40:06.651Z,1692
2022-09-24T09:40:47.080Z,1668
2022-09-24T09:41:27.508Z,1652
2022-09-24T09:48:53.033Z,1576
2022-09-24T09:49:33.458Z,1592
2022-09-24T09:50:13.947Z,1604
2022-09-24T09:50:54.502Z,1612
2022-09-24T09:51:35.024Z,1624
2022-09-24T09:52:15.495Z,1628
2022-09-24T09:52:56.104Z,1644
2022-09-24T09:53:36.781Z,1660
2022-09-24T09:54:17.209Z,1676
2022-09-24T09:54:57.779Z,1680
2022-09-24T10:01:02.629Z,1432
2022-09-24T10:01:43.127Z,1380
2022-09-24T10:02:23.711Z,1336
2022-09-24T10:03:04.298Z,1300
2022-09-24T10:03:44.665Z,1264
2022-09-24T10:04:25.063Z,1228
2022-09-24T10:05:05.535Z,1196
2022-09-24T10:05:46.316Z,1172
2022-09-24T10:06:26.757Z,1164
2022-09-24T10:07:07.208Z,1156
2022-09-24T10:07:47.714Z,1156
2022-09-24T10:14:32.892Z,1080
2022-09-24T10:15:13.461Z,1100
2022-09-24T10:15:54.098Z,1120
2022-09-24T10:16:34.714Z,1120
2022-09-24T10:17:15.043Z,1120
2022-09-24T10:17:55.587Z,1120
2022-09-24T10:18:36.049Z,1116
2022-09-24T10:19:16.597Z,1104
2022-09-24T10:19:57.158Z,1084
2022-09-24T10:20:37.688Z,1068
2022-09-24T10:27:20.255Z,900
2022-09-24T10:28:00.754Z,884
2022-09-24T10:28:41.365Z,868
2022-09-24T10:29:21.834Z,852
2022-09-24T10:30:02.320Z,840
2022-09-24T10:30:42.813Z,824
2022-09-24T10:31:23.324Z,812
2022-09-24T10:32:03.819Z,792
2022-09-24T10:32:44.294Z,784
2022-09-24T10:33:24.777Z,772
2022-09-24T10:40:50.169Z,792
2022-09-24T10:41:30.569Z,792
2022-09-24T10:42:11.117Z,800
2022-09-24T10:42:51.631Z,808
2022-09-24T10:43:32.068Z,812
2022-09-24T10:44:12.715Z,820
2022-09-24T10:44:53.125Z,824
2022-09-24T10:45:33.543Z,856
2022-09-24T10:46:14.110Z,900
2022-09-24T10:46:54.671Z,944
2022-09-24T10:54:19.981Z,792
2022-09-24T10:55:00.477Z,796
2022-09-24T10:55:41.036Z,840
2022-09-24T10:56:21.494Z,904
2022-09-24T10:57:01.951Z,956
2022-09-24T10:57:42.537Z,964
2022-09-24T10:58:22.989Z,948
2022-09-24T10:59:03.532Z,936
2022-09-24T10:59:44.036Z,928
2022-09-24T11:00:24.527Z,912
2022-09-24T11:07:49.863Z,1008
2022-09-24T11:08:30.369Z,1016
2022-09-24T11:09:10.895Z,1028
2022-09-24T11:09:51.343Z,1036
2022-09-24T11:10:31.838Z,1028
2022-09-24T11:11:12.300Z,1016
2022-09-24T11:12:33.282Z,1008
2022-09-24T11:13:13.777Z,1008
2022-09-24T11:13:54.301Z,1008
2022-09-24T11:14:34.675Z,1012
2022-09-24T11:15:15.167Z,1016
2022-09-24T11:22:00.130Z,1224
2022-09-24T11:22:40.556Z,1248
2022-09-24T11:23:21.053Z,1272
2022-09-24T11:24:01.688Z,1288
2022-09-24T11:24:42.104Z,1300
2022-09-24T11:25:22.592Z,1300
2022-09-24T11:26:03.069Z,1296
2022-09-24T11:26:43.624Z,1292
2022-09-24T11:27:24.138Z,1280
2022-09-24T11:28:04.609Z,1268
2022-09-24T11:35:30.114Z,932
2022-09-24T11:36:10.551Z,928
2022-09-24T11:36:51.036Z,932
2022-09-24T11:37:31.635Z,928
2022-09-24T11:38:12.084Z,916
2022-09-24T11:38:52.645Z,900
2022-09-24T11:39:33.058Z,884
2022-09-24T11:40:13.758Z,872
2022-09-24T11:40:54.199Z,872
2022-09-24T11:41:34.682Z,884
2022-09-24T11:49:00.161Z,860
2022-09-24T11:49:40.741Z,844
2022-09-24T11:50:21.138Z,824
2022-09-24T11:51:01.685Z,800
2022-09-24T11:51:42.189Z,776
2022-09-24T11:52:22.669Z,760
2022-09-24T11:53:03.178Z,740
2022-09-24T11:53:43.627Z,724
2022-09-24T11:54:24.156Z,708
2022-09-24T12:32:43.064Z,844
2022-09-24T12:33:23.470Z,804
2022-09-24T12:34:03.988Z,772
2022-09-24T12:34:45.677Z,740
2022-09-24T12:35:26.178Z,716
2022-09-24T12:40:11.378Z,668
2022-09-24T12:40:51.900Z,660
2022-09-24T12:41:32.259Z,668
2022-09-24T12:42:12.745Z,680
2022-09-24T12:42:53.278Z,700
2022-09-24T12:43:33.779Z,720
2022-09-24T12:44:17.214Z,744
2022-09-24T12:44:54.772Z,768
2022-09-24T12:45:35.297Z,792
2022-09-24T12:46:16.085Z,816
2022-09-24T12:52:21.073Z,936
2022-09-24T12:53:01.528Z,944
2022-09-24T12:53:42.071Z,948
2022-09-24T12:54:22.617Z,956
2022-09-24T12:55:03.134Z,960
2022-09-24T12:55:43.677Z,960
2022-09-24T12:59:22.960Z,1020
2022-09-24T13:00:03.690Z,1048
2022-09-24T13:00:44.171Z,1068
2022-09-24T13:01:24.835Z,1084
2022-09-24T13:02:05.334Z,1096
2022-09-24T13:05:19.965Z,1096
2022-09-24T13:05:59.591Z,1092
2022-09-24T13:06:40.153Z,1084
2022-09-24T13:07:20.721Z,1080
2022-09-24T13:08:01.411Z,1076
2022-09-24T13:08:42.371Z,1064
2022-09-24T13:09:25.747Z,1056
2022-09-24T13:10:03.423Z,1040
2022-09-24T13:16:49.135Z,1040
2022-09-24T13:17:29.689Z,1016
2022-09-24T13:18:52.935Z,944
2022-09-24T13:19:33.529Z,916
2022-09-24T13:20:14.278Z,888
2022-09-24T13:23:41.004Z,760
2022-09-24T13:24:22.058Z,744
2022-09-24T13:25:02.677Z,732
2022-09-24T13:25:43.314Z,720
2022-09-24T13:26:23.767Z,708
2022-09-24T13:27:04.268Z,700
2022-09-24T13:27:44.813Z,692
2022-09-24T13:28:25.405Z,680
2022-09-24T13:29:06.842Z,668
2022-09-24T13:29:50.534Z,660
2022-09-24T13:30:31.069Z,648
2022-09-24T13:31:12.158Z,640
2022-09-24T13:31:52.689Z,632
2022-09-24T13:32:33.755Z,624
2022-09-24T13:33:14.270Z,624
2022-09-24T13:33:54.770Z,624
2022-09-24T13:34:35.678Z,620
2022-09-24T13:39:28.375Z,620
2022-09-24T13:40:08.912Z,620
2022-09-24T13:40:49.464Z,632
2022-09-24T13:41:29.860Z,636
2022-09-24T13:42:10.315Z,640
2022-09-24T13:42:50.803Z,640
2022-09-24T13:43:31.295Z,644
2022-09-24T13:44:11.805Z,648
2022-09-24T13:44:52.441Z,648
2022-09-24T13:50:58.735Z,648
2022-09-24T13:51:39.284Z,632
2022-09-24T13:52:19.756Z,620
2022-09-24T13:53:00.198Z,608
2022-09-24T13:53:41.211Z,592
2022-09-24T13:54:21.662Z,580
2022-09-24T13:55:02.248Z,568
2022-09-24T13:55:42.640Z,556
2022-09-24T13:56:23.105Z,552
2022-09-24T14:01:12.602Z,520
2022-09-24T14:01:48.664Z,520
2022-09-24T14:02:29.116Z,520
2022-09-24T14:03:09.606Z,524
2022-09-24T14:03:50.072Z,528
2022-09-24T14:04:30.576Z,528
2022-09-24T14:05:11.336Z,528
2022-09-24T14:05:51.784Z,532
2022-09-24T14:06:32.318Z,528
2022-09-24T14:07:12.786Z,528
2022-09-24T14:07:53.299Z,520
2022-09-24T14:14:38.435Z,492
2022-09-24T14:15:18.927Z,488
2022-09-24T14:15:59.515Z,484
2022-09-24T14:16:40.051Z,480
2022-09-24T14:17:20.502Z,476
2022-09-24T14:18:01.084Z,472
2022-09-24T14:18:41.524Z,468
2022-09-24T14:19:22.244Z,460
2022-09-24T14:20:02.740Z,460
2022-09-24T14:20:43.591Z,460
2022-09-24T14:26:48.347Z,472
2022-09-24T14:27:28.907Z,468
2022-09-24T14:28:09.705Z,468
2022-09-24T14:28:50.240Z,468
2022-09-24T14:29:30.759Z,472
2022-09-24T14:32:45.345Z,488
2022-09-24T14:33:25.409Z,496
2022-09-24T14:34:05.910Z,500
2022-09-24T14:34:46.395Z,504
2022-09-24T14:35:29.817Z,508
2022-09-24T14:36:07.585Z,508
2022-09-24T14:36:48.118Z,504
2022-09-24T14:37:28.649Z,500
2022-09-24T14:38:09.113Z,500
2022-09-24T14:41:39.942Z,488
2022-09-24T14:43:44.504Z,468
2022-09-24T14:44:25.169Z,460
2022-09-24T14:45:07.242Z,452
2022-09-24T14:45:51.644Z,436
2022-09-24T14:48:35.653Z,384
2022-09-24T14:49:16.776Z,376
2022-09-24T14:49:57.200Z,372
2022-09-24T14:50:37.658Z,364
2022-09-24T14:51:18.171Z,360
2022-09-24T14:52:39.158Z,352
2022-09-24T14:58:44.413Z,344
2022-09-24T14:59:24.992Z,340
2022-09-24T15:00:05.754Z,340
2022-09-24T15:00:46.626Z,340
2022-09-24T15:01:27.315Z,336
2022-09-24T15:02:07.833Z,336
2022-09-24T15:02:48.225Z,336
2022-09-24T15:03:28.829Z,332
2022-09-24T15:04:09.455Z,324
2022-09-24T15:10:14.524Z,296
2022-09-24T15:10:56.201Z,296
2022-09-24T15:11:36.944Z,296
2022-09-24T15:12:18.661Z,296
2022-09-24T15:12:59.197Z,296
2022-09-24T15:17:46.147Z,292
2022-09-24T15:18:25.336Z,288
2022-09-24T15:19:05.999Z,288
2022-09-24T15:19:46.693Z,288
2022-09-24T15:20:27.101Z,284
2022-09-24T15:21:07.770Z,280
2022-09-24T15:21:48.315Z,272
2022-09-24T15:22:29.414Z,268
2022-09-24T15:27:54.841Z,224
2022-09-24T15:28:35.545Z,220
2022-09-24T15:29:16.549Z,216
2022-09-24T15:29:56.905Z,216
2022-09-24T15:30:37.422Z,212
2022-09-24T15:31:17.979Z,208
2022-09-24T15:31:58.439Z,204
2022-09-24T15:32:39.182Z,204
2022-09-24T15:38:44.122Z,188
2022-09-24T15:39:25.279Z,184
2022-09-24T15:40:05.581Z,184
2022-09-24T15:40:46.546Z,184
2022-09-24T15:41:26.987Z,184
2022-09-24T15:42:08.281Z,184
2022-09-24T15:42:49.723Z,184
2022-09-24T15:47:34.864Z,168
2022-09-24T15:48:15.369Z,168
2022-09-24T15:48:56.010Z,168
2022-09-24T15:49:37.111Z,168
2022-09-24T15:50:17.640Z,164
2022-09-24T15:50:58.217Z,164
2022-09-24T15:51:38.939Z,160
2022-09-24T15:52:20.394Z,160
2022-09-24T15:57:44.750Z,140
2022-09-24T15:58:25.495Z,136
2022-09-24T15:59:06.145Z,132
2022-09-24T15:59:46.432Z,128
2022-09-24T16:00:26.879Z,124
2022-09-24T16:01:07.400Z,124
2022-09-24T16:01:47.895Z,124
2022-09-24T16:02:28.409Z,120
2022-09-24T16:03:09.070Z,116
2022-09-24T16:08:34.158Z,104
2022-09-24T16:09:14.743Z,108
2022-09-24T16:09:55.364Z,104
2022-09-24T16:10:36.171Z,108
2022-09-24T16:11:16.582Z,104
2022-09-24T16:11:57.047Z,104
2022-09-24T16:12:37.546Z,104
2022-09-24T16:13:18.055Z,104
2022-09-24T16:13:58.525Z,104
2022-09-24T16:14:39.029Z,100
2022-09-24T16:20:04.574Z,96
2022-09-24T16:20:45.083Z,96
2022-09-24T16:21:25.781Z,96
2022-09-24T16:22:06.208Z,96
2022-09-24T16:22:46.766Z,96
2022-09-24T16:23:27.250Z,96
2022-09-24T16:24:08.019Z,100
2022-09-24T16:24:48.571Z,96
2022-09-24T16:25:29.103Z,96
2022-09-24T16:30:11.316Z,80
2022-09-24T16:30:51.607Z,80
2022-09-24T16:31:32.062Z,76
2022-09-24T16:32:12.571Z,72
2022-09-24T16:32:53.027Z,68
2022-09-24T16:33:33.538Z,68
2022-09-24T16:34:14.061Z,64
2022-09-24T16:34:54.692Z,60
2022-09-24T16:35:35.136Z,60
2022-09-24T16:36:15.670Z,56
2022-09-24T16:39:41.093Z,44
2022-09-24T16:40:21.668Z,44
2022-09-24T16:41:42.657Z,40
2022-09-24T16:42:23.116Z,40
2022-09-24T16:43:03.551Z,40
2022-09-24T16:43:44.064Z,36
2022-09-24T16:44:24.616Z,40
2022-09-24T16:45:05.168Z,36
2022-09-24T16:45:45.678Z,36
2022-09-24T16:50:30.912Z,36
2022-09-24T16:51:11.343Z,32
2022-09-24T16:51:51.909Z,32
2022-09-24T16:52:32.375Z,32
2022-09-24T16:53:12.936Z,28
2022-09-24T16:53:54.886Z,28
2022-09-24T16:54:35.358Z,28
2022-09-24T17:02:00.820Z,20
2022-09-24T17:02:41.260Z,16
2022-09-24T17:03:21.851Z,16
2022-09-24T17:04:02.260Z,20
2022-09-24T17:04:42.798Z,16
2022-09-24T17:05:23.317Z,16
2022-09-24T17:06:03.811Z,12
2022-09-24T17:06:44.329Z,16
2022-09-24T17:07:24.811Z,16
2022-09-24T17:08:05.360Z,12
2022-09-24T17:14:50.587Z,8
2022-09-24T17:15:31.133Z,8
2022-09-24T17:16:11.651Z,8
2022-09-24T17:16:52.171Z,8
2022-09-24T17:17:42.178Z,4
2022-09-24T17:18:14.732Z,4
2022-09-24T17:18:55.158Z,8
2022-09-24T17:19:35.681Z,8
2022-09-24T17:24:33.102Z,4
2022-09-24T17:25:13.915Z,4
2022-09-24T17:25:54.676Z,4
2022-09-24T17:26:35.361Z,4
2022-09-24T17:27:16.507Z,4
2022-09-24T17:32:40.791Z,0
2022-09-24T17:33:42.176Z,0
2022-09-24T17:34:45.811Z,0
2022-09-24T17:35:23.756Z,0
2022-09-24T17:36:05.393Z,0
2022-09-24T17:40:24.041Z,0
2022-09-24T17:41:04.887Z,0
2022-09-24T17:41:42.428Z,0
2022-09-24T17:42:22.972Z,0
2022-09-24T17:43:03.514Z,0
2022-09-24T17:43:43.964Z,0
2022-09-24T17:44:24.470Z,0
2022-09-24T17:45:04.962Z,0
2022-09-24T17:45:45.507Z,0
2022-09-24T17:46:25.943Z,0
2022-09-24T17:53:27.918Z,0
2022-09-24T17:54:08.326Z,0
2022-09-24T17:54:48.915Z,0
2022-09-24T18:34:21.219Z,0
2022-09-24T18:35:01.777Z,0
2022-09-24T18:35:42.302Z,0
2022-09-24T18:36:22.908Z,0
2022-09-24T18:37:03.469Z,0
2022-09-24T18:37:44.039Z,0
2022-09-24T18:41:13.001Z,0
2022-09-24T18:41:54.016Z,0
2022-09-24T18:42:34.480Z,0
2022-09-24T18:43:14.981Z,0
2022-09-24T18:43:55.817Z,0
2022-09-24T18:44:36.709Z,0
2022-09-24T18:45:17.274Z,0
2022-09-24T18:45:58.395Z,0
2022-09-24T18:51:23.103Z,0
2022-09-24T18:52:03.494Z,0
2022-09-24T18:52:44.080Z,0
2022-09-24T18:53:24.682Z,0
2022-09-24T18:54:05.924Z,0
2022-09-24T18:57:34.440Z,0
2022-09-24T18:58:21.047Z,0
2022-09-24T19:00:35.246Z,0
2022-09-24T19:01:16.402Z,0
2022-09-24T19:01:57.196Z,0
2022-09-24T19:02:38.001Z,0
2022-09-24T19:03:18.525Z,0
2022-09-24T19:03:59.110Z,0
2022-09-24T19:10:44.483Z,0
2022-09-24T19:11:25.001Z,0
2022-09-24T19:12:05.558Z,0
2022-09-24T19:12:46.921Z,0
2022-09-24T19:17:34.421Z,0
2022-09-24T19:18:14.789Z,0
2022-09-24T19:18:56.091Z,0
2022-09-24T19:19:37.163Z,0
2022-09-24T19:20:17.659Z,0
2022-09-24T19:23:43.882Z,0
2022-09-24T19:24:24.120Z,0
2022-09-24T19:25:04.631Z,0
2022-09-24T19:26:26.280Z,0
2022-09-24T19:27:06.838Z,0
2022-09-24T19:27:47.354Z,0
2022-09-24T19:28:28.197Z,0
2022-09-24T19:33:52.904Z,0
2022-09-24T19:34:33.325Z,0
2022-09-24T19:37:49.418Z,0
2022-09-24T19:38:29.602Z,0
2022-09-24T19:39:10.074Z,0
2022-09-24T19:39:50.604Z,0
2022-09-24T19:40:31.070Z,0
2022-09-24T19:41:11.536Z,0
2022-09-24T19:41:51.964Z,0
2022-09-24T19:49:17.252Z,0
2022-09-24T19:49:57.870Z,0
2022-09-24T19:50:38.373Z,0
2022-09-24T19:51:18.750Z,0
2022-09-24T19:51:59.739Z,0
2022-09-24T19:52:40.207Z,0
2022-09-24T19:53:20.719Z,0
2022-09-24T19:54:01.337Z,0
2022-09-24T19:54:41.753Z,0
2022-09-24T19:55:26.221Z,0
2022-09-24T20:00:47.175Z,0
2022-09-24T20:01:27.811Z,0
2022-09-24T20:02:08.321Z,0
2022-09-24T20:02:48.817Z,0
2022-09-24T20:03:29.411Z,0
2022-09-24T20:04:11.326Z,0
2022-09-24T20:04:52.254Z,0